createdAt,value
2019-02-28T00:00:17.992Z,98218.92
2019-02-28T00:02:50.138Z,98223.36
2019-02-28T00:05:20.734Z,98211.19
2019-02-28T00:07:51.418Z,98218.59
2019-02-28T00:10:21.893Z,98216.14
2019-02-28T00:12:52.637Z,98209.02
2019-02-28T00:15:23.149Z,98205.37
2019-02-28T00:17:53.630Z,98198.66
2019-02-28T00:20:23.964Z,98198.66
2019-02-28T00:22:54.387Z,98188.55
2019-02-28T00:25:24.782Z,98187.50
2019-02-28T00:27:55.225Z,98181.70
2019-02-28T00:30:25.776Z,98176.14
2019-02-28T00:32:59.394Z,98172.31
2019-02-28T00:35:28.525Z,98176.97
2019-02-28T00:37:58.963Z,98178.33
2019-02-28T00:40:29.573Z,98180.09
2019-02-28T00:43:00.020Z,98174.64
2019-02-28T00:45:30.437Z,98171.13
2019-02-28T00:48:00.879Z,98163.63
2019-02-28T00:50:31.559Z,98159.47
2019-02-28T00:53:02.345Z,98139.46
2019-02-28T00:55:32.907Z,98146.64
2019-02-28T00:58:03.393Z,98154.08
2019-02-28T01:00:37.002Z,98137.14
2019-02-28T01:03:05.978Z,98135.48
2019-02-28T01:05:37.218Z,98138.39
2019-02-28T01:08:07.700Z,98127.56
2019-02-28T01:10:39.395Z,98113.64
2019-02-28T01:13:10.443Z,98107.12
2019-02-28T01:15:44.811Z,98099.81
2019-02-28T01:18:13.813Z,98101.25
2019-02-28T01:20:50.026Z,98096.83
2019-02-28T01:23:16.742Z,98086.32
2019-02-28T01:25:47.195Z,98077.16
2019-02-28T01:28:17.643Z,98076.52
2019-02-28T01:30:48.386Z,98065.78
2019-02-28T01:33:24.648Z,98063.42
2019-02-28T01:35:51.023Z,98059.91
2019-02-28T01:38:23.931Z,98051.34
2019-02-28T01:40:53.720Z,98040.44
2019-02-28T01:43:28.529Z,98034.75
2019-02-28T01:45:56.740Z,98047.66
2019-02-28T01:48:27.220Z,98046.08
2019-02-28T01:51:00.781Z,98025.13
2019-02-28T01:53:30.033Z,98040.31
2019-02-28T01:56:02.546Z,98016.28
2019-02-28T01:58:32.941Z,98015.12
2019-02-28T02:01:03.639Z,98010.95
2019-02-28T02:03:34.161Z,98002.91
2019-02-28T02:06:06.104Z,97999.51
2019-02-28T02:08:37.807Z,97993.83
2019-02-28T02:11:08.877Z,98016.63
2019-02-28T02:13:39.213Z,97999.36
2019-02-28T02:16:09.603Z,97987.72
2019-02-28T02:18:43.188Z,97990.29
2019-02-28T02:21:12.502Z,97973.50
2019-02-28T02:23:42.886Z,97961.16
2019-02-28T02:26:14.243Z,97950.91
2019-02-28T02:28:44.609Z,97967.18
2019-02-28T02:31:15.085Z,97953.73
2019-02-28T02:33:50.935Z,97950.53
2019-02-28T02:36:17.820Z,97941.45
2019-02-28T02:38:48.232Z,97933.83
2019-02-28T02:41:18.764Z,97933.52
2019-02-28T02:43:49.550Z,97930.23
2019-02-28T02:46:21.434Z,97934.10
2019-02-28T02:48:51.811Z,97920.33
2019-02-28T02:51:22.228Z,97920.41
2019-02-28T02:53:52.930Z,97917.48
2019-02-28T02:56:23.446Z,97903.95
2019-02-28T02:58:53.804Z,97896.01
2019-02-28T03:01:24.546Z,97901.41
2019-02-28T03:03:54.986Z,97891.66
2019-02-28T03:06:25.466Z,97898.05
2019-02-28T03:08:56.935Z,97891.30
2019-02-28T03:11:27.413Z,97876.94
2019-02-28T03:13:57.790Z,97861.26
2019-02-28T03:16:28.179Z,97872.64
2019-02-28T03:18:58.590Z,97863.24
2019-02-28T03:21:29.029Z,97859.68
2019-02-28T03:23:59.409Z,97853.95
2019-02-28T03:26:30.265Z,97849.97
2019-02-28T03:29:07.537Z,97840.76
2019-02-28T03:31:32.733Z,97830.45
2019-02-28T03:34:10.304Z,97829.80
2019-02-28T03:36:35.321Z,97820.52
2019-02-28T03:39:07.355Z,97817.40
2019-02-28T03:41:37.905Z,97809.40
2019-02-28T03:44:08.435Z,97807.91
2019-02-28T03:46:39.059Z,97807.47
2019-02-28T03:49:11.400Z,97813.66
2019-02-28T03:51:41.919Z,97811.41
2019-02-28T03:54:12.635Z,97807.59
2019-02-28T03:56:43.235Z,97805.66
2019-02-28T03:59:18.139Z,97802.90
2019-02-28T04:01:47.031Z,97792.91
2019-02-28T04:04:17.374Z,97792.01
2019-02-28T04:06:47.775Z,97783.05
2019-02-28T04:09:18.515Z,97780.58
2019-02-28T04:11:48.909Z,97779.52
2019-02-28T04:14:19.343Z,97779.52
2019-02-28T04:16:54.084Z,97781.38
2019-02-28T04:19:23.181Z,97785.01
2019-02-28T04:21:53.588Z,97799.22
2019-02-28T04:24:23.969Z,97792.31
2019-02-28T04:26:54.311Z,97793.31
2019-02-28T04:29:29.995Z,97781.41
2019-02-28T04:31:58.115Z,97768.75
2019-02-28T04:34:28.970Z,97767.80
2019-02-28T04:36:59.455Z,97762.70
2019-02-28T04:39:30.152Z,97757.81
2019-02-28T04:42:01.071Z,97759.33
2019-02-28T04:44:31.511Z,97758.55
2019-02-28T04:47:03.477Z,97744.11
2019-02-28T04:49:34.061Z,97736.66
2019-02-28T04:52:05.645Z,97743.00
2019-02-28T04:54:36.326Z,97740.52
2019-02-28T04:57:06.940Z,97734.95
2019-02-28T04:59:37.350Z,97723.69
2019-02-28T05:02:08.016Z,97711.27
2019-02-28T05:04:38.694Z,97696.60
2019-02-28T05:07:09.155Z,97690.93
2019-02-28T05:09:41.291Z,97683.40
2019-02-28T05:12:13.171Z,97684.70
2019-02-28T05:14:43.986Z,97681.45
2019-02-28T05:17:14.391Z,97676.76
2019-02-28T05:19:46.078Z,97675.49
2019-02-28T05:22:18.618Z,97673.41
2019-02-28T05:24:51.373Z,97666.80
2019-02-28T05:27:24.310Z,97661.96
2019-02-28T05:29:55.187Z,97667.02
2019-02-28T05:32:27.735Z,97667.53
2019-02-28T05:35:00.057Z,97659.63
2019-02-28T05:37:32.232Z,97652.87
2019-02-28T05:40:06.112Z,97645.27
2019-02-28T05:42:37.516Z,97644.16
2019-02-28T05:45:11.362Z,97650.19
2019-02-28T05:47:46.397Z,97634.09
2019-02-28T05:50:16.835Z,97630.77
2019-02-28T05:52:48.420Z,97631.11
2019-02-28T05:55:24.598Z,97632.09
2019-02-28T05:57:53.375Z,97619.57
2019-02-28T06:00:26.113Z,97609.15
2019-02-28T06:02:58.234Z,97610.84
2019-02-28T06:05:29.145Z,97602.78
2019-02-28T06:08:00.519Z,97594.85
2019-02-28T06:10:32.087Z,97572.75
2019-02-28T06:13:02.591Z,97572.75
2019-02-28T06:15:34.192Z,97584.97
2019-02-28T06:18:05.640Z,97581.22
2019-02-28T06:20:36.104Z,97579.51
2019-02-28T06:23:09.303Z,97576.81
2019-02-28T06:25:38.652Z,97598.73
2019-02-28T06:28:09.097Z,97582.49
2019-02-28T06:30:41.538Z,97581.27
2019-02-28T06:33:11.613Z,97560.99
2019-02-28T06:35:42.241Z,97570.26
2019-02-28T06:38:12.710Z,97567.63
2019-02-28T06:40:43.188Z,97571.31
2019-02-28T06:43:14.226Z,97561.59
2019-02-28T06:45:44.698Z,97564.13
2019-02-28T06:48:15.065Z,97558.55
2019-02-28T06:50:45.637Z,97547.36
2019-02-28T06:53:16.033Z,97536.32
2019-02-28T06:55:49.310Z,97542.51
2019-02-28T06:58:19.776Z,97532.25
2019-02-28T07:00:50.592Z,97535.48
2019-02-28T07:03:21.136Z,97524.73
2019-02-28T07:05:51.576Z,97498.10
2019-02-28T07:08:24.892Z,97502.23
2019-02-28T07:10:54.083Z,97501.31
2019-02-28T07:13:24.586Z,97493.13
2019-02-28T07:15:55.561Z,97493.11
2019-02-28T07:18:27.244Z,97490.53
2019-02-28T07:20:57.630Z,97500.37
2019-02-28T07:23:29.955Z,97508.27
2019-02-28T07:26:00.252Z,97478.54
2019-02-28T07:28:36.292Z,97500.22
2019-02-28T07:31:02.790Z,97492.30
2019-02-28T07:33:33.238Z,97480.80
2019-02-28T07:36:05.664Z,97481.69
2019-02-28T07:38:35.745Z,97484.31
2019-02-28T07:41:06.262Z,97476.70
2019-02-28T07:43:36.722Z,97487.65
2019-02-28T07:46:07.761Z,97500.00
2019-02-28T07:48:39.038Z,97480.42
2019-02-28T07:51:09.677Z,97470.28
2019-02-28T07:53:40.960Z,97465.09
2019-02-28T07:56:12.290Z,97476.81
2019-02-28T07:58:42.771Z,97465.08
2019-02-28T08:01:13.266Z,97449.56
2019-02-28T08:03:44.947Z,97450.45
2019-02-28T08:06:15.619Z,97465.95
2019-02-28T08:08:46.081Z,97457.89
2019-02-28T08:11:19.944Z,97444.73
2019-02-28T08:13:49.858Z,97424.24
2019-02-28T08:16:20.309Z,97444.34
2019-02-28T08:18:51.367Z,97428.67
2019-02-28T08:21:23.034Z,97396.77
2019-02-28T08:23:53.466Z,97420.04
2019-02-28T08:26:23.950Z,97421.70
2019-02-28T08:28:54.451Z,97400.63
2019-02-28T08:31:24.895Z,97400.95
2019-02-28T08:33:56.363Z,97395.55
2019-02-28T08:36:26.793Z,97389.63
2019-02-28T08:38:57.247Z,97407.52
2019-02-28T08:41:27.662Z,97366.66
2019-02-28T08:43:58.192Z,97378.08
2019-02-28T08:46:28.800Z,97399.78
2019-02-28T08:48:59.328Z,97391.66
2019-02-28T08:51:31.033Z,97370.00
2019-02-28T08:54:02.201Z,97366.50
2019-02-28T08:56:32.725Z,97364.62
2019-02-28T08:59:11.552Z,97367.89
2019-02-28T09:01:40.043Z,97391.21
2019-02-28T09:04:09.460Z,97385.53
2019-02-28T09:06:40.892Z,97348.09
2019-02-28T09:09:14.619Z,97352.18
2019-02-28T09:11:45.093Z,97368.71
2019-02-28T09:14:17.776Z,97357.30
2019-02-28T09:16:47.888Z,97361.91
2019-02-28T09:19:19.582Z,97358.09
2019-02-28T09:21:52.929Z,97361.90
2019-02-28T09:24:22.176Z,97362.42
2019-02-28T09:26:52.568Z,97349.34
2019-02-28T09:29:23.317Z,97334.16
2019-02-28T09:31:53.669Z,97334.16
2019-02-28T09:34:24.097Z,97325.11
2019-02-28T09:36:56.482Z,97335.43
2019-02-28T09:39:26.827Z,97339.72
2019-02-28T09:41:58.746Z,97335.73
2019-02-28T09:44:31.530Z,97354.73
2019-02-28T09:47:02.562Z,97348.52
2019-02-28T09:49:34.683Z,97344.10
2019-02-28T09:52:06.426Z,97349.80
2019-02-28T09:54:37.728Z,97335.11
2019-02-28T09:57:08.095Z,97364.41
2019-02-28T09:59:38.723Z,97378.55
2019-02-28T10:02:09.613Z,97333.77
2019-02-28T10:04:40.106Z,97356.79
2019-02-28T10:07:10.644Z,97346.16
2019-02-28T10:09:44.377Z,97304.17
2019-02-28T10:12:15.235Z,97368.42
2019-02-28T10:14:45.653Z,97328.73
2019-02-28T10:17:16.106Z,97367.05
2019-02-28T10:19:51.964Z,97382.78
2019-02-28T10:22:18.754Z,97358.06
2019-02-28T10:24:49.372Z,97295.53
2019-02-28T10:27:19.995Z,97302.42
2019-02-28T10:29:51.030Z,97302.69
2019-02-28T10:32:21.465Z,97308.94
2019-02-28T10:34:51.889Z,97320.66
2019-02-28T10:37:22.805Z,97287.21
2019-02-28T10:39:54.308Z,97271.72
2019-02-28T10:42:24.777Z,97282.81
2019-02-28T10:44:55.353Z,97282.56
2019-02-28T10:47:29.631Z,97264.32
2019-02-28T10:49:59.028Z,97309.97
2019-02-28T10:52:30.658Z,97208.03
2019-02-28T10:55:01.298Z,97229.23
2019-02-28T10:57:31.743Z,97260.75
2019-02-28T11:00:02.104Z,97247.06
2019-02-28T11:02:34.134Z,97248.84
2019-02-28T11:05:04.842Z,97249.58
2019-02-28T11:07:37.890Z,97297.34
2019-02-28T11:10:07.523Z,97283.91
2019-02-28T11:12:39.456Z,97238.64
2019-02-28T11:15:13.726Z,97234.31
2019-02-28T11:17:44.574Z,97269.44
2019-02-28T11:20:22.111Z,97319.42
2019-02-28T11:22:47.680Z,97254.30
2019-02-28T11:25:18.776Z,97273.89
2019-02-28T11:27:49.446Z,97245.23
2019-02-28T11:30:20.372Z,97267.38
2019-02-28T11:32:51.125Z,97276.25
2019-02-28T11:35:23.240Z,97275.45
2019-02-28T11:37:53.774Z,97267.97
2019-02-28T11:40:25.324Z,97291.75
2019-02-28T11:42:59.478Z,97333.75
2019-02-28T11:45:29.014Z,97324.91
2019-02-28T11:48:00.680Z,97336.67
2019-02-28T11:50:31.279Z,97311.73
2019-02-28T11:53:04.874Z,97250.34
2019-02-28T11:55:33.857Z,97307.64
2019-02-28T11:58:04.261Z,97277.29
2019-02-28T12:00:35.728Z,97257.81
2019-02-28T12:03:07.158Z,97230.74
2019-02-28T12:05:37.839Z,97230.74
2019-02-28T12:08:10.361Z,97312.89
2019-02-28T12:10:40.371Z,97248.02
2019-02-28T12:13:10.949Z,97241.44
2019-02-28T12:15:42.400Z,97247.24
2019-02-28T12:18:12.926Z,97219.54
2019-02-28T12:20:43.498Z,97261.72
2019-02-28T12:23:13.905Z,97201.35
2019-02-28T12:25:44.263Z,97292.66
2019-02-28T12:28:14.851Z,97212.39
2019-02-28T12:30:45.227Z,97229.21
2019-02-28T12:33:19.008Z,97241.66
2019-02-28T12:35:47.893Z,97184.89
2019-02-28T12:38:18.339Z,97226.70
2019-02-28T12:40:49.572Z,97225.01
2019-02-28T12:43:20.236Z,97223.80
2019-02-28T12:45:50.847Z,97243.13
2019-02-28T12:48:21.621Z,97250.39
2019-02-28T12:50:52.103Z,97225.61
2019-02-28T12:53:25.249Z,97195.31
2019-02-28T12:55:54.680Z,97264.48
2019-02-28T12:58:25.058Z,97206.11
2019-02-28T13:01:00.029Z,97207.93
2019-02-28T13:03:28.598Z,97208.06
2019-02-28T13:05:59.084Z,97212.83
2019-02-28T13:08:29.520Z,97202.14
2019-02-28T13:11:04.539Z,97214.67
2019-02-28T13:13:32.267Z,97217.64
2019-02-28T13:16:03.003Z,97221.56
2019-02-28T13:18:33.380Z,97209.79
2019-02-28T13:21:06.161Z,97221.54
2019-02-28T13:23:36.069Z,97203.72
2019-02-28T13:26:06.550Z,97192.06
2019-02-28T13:28:36.978Z,97186.28
2019-02-28T13:31:07.473Z,97207.27
2019-02-28T13:33:37.834Z,97223.80
2019-02-28T13:36:08.232Z,97182.86
2019-02-28T13:38:38.722Z,97191.27
2019-02-28T13:41:09.217Z,97213.27
2019-02-28T13:43:39.626Z,97239.30
2019-02-28T13:46:12.887Z,97253.48
2019-02-28T13:48:43.346Z,97219.41
2019-02-28T13:51:13.878Z,97242.81
2019-02-28T13:53:44.339Z,97220.48
2019-02-28T13:56:14.954Z,97200.47
2019-02-28T13:58:45.519Z,97223.73
2019-02-28T14:01:19.420Z,97214.51
2019-02-28T14:03:48.506Z,97231.91
2019-02-28T14:06:20.080Z,97171.07
2019-02-28T14:08:50.506Z,97211.09
2019-02-28T14:11:21.331Z,97215.25
2019-02-28T14:13:51.918Z,97175.21
2019-02-28T14:16:26.525Z,97202.36
2019-02-28T14:18:54.808Z,97234.80
2019-02-28T14:21:25.398Z,97234.80
2019-02-28T14:23:56.770Z,97177.92
2019-02-28T14:26:27.243Z,97232.44
2019-02-28T14:28:57.689Z,97183.08
2019-02-28T14:31:29.523Z,97184.59
2019-02-28T14:34:00.276Z,97223.36
2019-02-28T14:36:30.938Z,97172.57
2019-02-28T14:39:01.467Z,97208.41
2019-02-28T14:41:33.473Z,97191.93
2019-02-28T14:44:03.990Z,97178.16
2019-02-28T14:46:34.836Z,97164.36
2019-02-28T14:49:06.104Z,97186.02
2019-02-28T14:51:37.629Z,97208.05
2019-02-28T14:54:08.186Z,97160.00
2019-02-28T14:56:39.531Z,97177.30
2019-02-28T14:59:10.848Z,97203.66
2019-02-28T15:01:41.460Z,97201.56
2019-02-28T15:04:11.980Z,97210.90
2019-02-28T15:06:42.486Z,97179.53
2019-02-28T15:09:17.677Z,97184.80
2019-02-28T15:11:48.297Z,97200.08
2019-02-28T15:14:18.743Z,97196.47
2019-02-28T15:16:49.252Z,97170.59
2019-02-28T15:19:21.480Z,97199.23
2019-02-28T15:21:52.866Z,97194.48
2019-02-28T15:24:23.282Z,97182.61
2019-02-28T15:26:53.700Z,97211.70
2019-02-28T15:29:24.618Z,97197.66
2019-02-28T15:31:56.139Z,97196.98
2019-02-28T15:34:26.645Z,97205.56
2019-02-28T15:36:59.174Z,97205.63
2019-02-28T15:39:29.168Z,97180.97
2019-02-28T15:41:59.664Z,97198.77
2019-02-28T15:44:30.226Z,97211.37
2019-02-28T15:47:00.850Z,97235.44
2019-02-28T15:49:31.696Z,97217.00
2019-02-28T15:52:05.276Z,97226.59
2019-02-28T15:54:34.202Z,97217.41
2019-02-28T15:57:04.784Z,97225.89
2019-02-28T15:59:35.169Z,97235.45
2019-02-28T16:02:06.247Z,97257.23
2019-02-28T16:04:37.498Z,97235.59
2019-02-28T16:07:08.179Z,97227.53
2019-02-28T16:09:38.599Z,97250.92
2019-02-28T16:12:12.514Z,97258.53
2019-02-28T16:14:44.468Z,97235.25
2019-02-28T16:17:14.955Z,97235.25
2019-02-28T16:19:45.431Z,97240.45
2019-02-28T16:22:18.200Z,97225.02
2019-02-28T16:24:48.193Z,97251.38
2019-02-28T16:27:18.556Z,97261.68
2019-02-28T16:29:49.103Z,97240.26
2019-02-28T16:32:19.517Z,97250.62
2019-02-28T16:34:49.985Z,97279.40
2019-02-28T16:37:20.417Z,97252.82
2019-02-28T16:39:50.918Z,97269.95
2019-02-28T16:42:21.773Z,97277.52
2019-02-28T16:44:52.273Z,97266.96
2019-02-28T16:47:24.487Z,97271.57
2019-02-28T16:49:55.579Z,97267.00
2019-02-28T16:52:26.002Z,97266.20
2019-02-28T16:54:57.082Z,97277.31
2019-02-28T16:57:27.507Z,97297.41
2019-02-28T16:59:57.960Z,97280.85
2019-02-28T17:02:29.277Z,97271.91
2019-02-28T17:05:00.452Z,97305.81
2019-02-28T17:07:30.803Z,97295.23
2019-02-28T17:10:01.651Z,97287.11
2019-02-28T17:12:48.881Z,97313.15
2019-02-28T17:15:24.469Z,97316.66
2019-02-28T17:17:58.466Z,97306.64
2019-02-28T17:20:29.012Z,97298.51
2019-02-28T17:23:01.422Z,97319.38
2019-02-28T17:39:17.380Z,97338.88
2019-02-28T17:41:47.939Z,97318.28
2019-02-28T17:44:46.134Z,97338.08
2019-02-28T17:47:41.294Z,97329.12
2019-02-28T17:50:46.235Z,97323.96
2019-02-28T17:53:48.918Z,97337.26
2019-02-28T17:57:03.358Z,97324.78
2019-02-28T18:06:43.716Z,97347.28
2019-02-28T18:09:50.410Z,97326.68
2019-02-28T18:13:00.927Z,97352.95
2019-02-28T18:16:04.426Z,97337.23
2019-02-28T18:19:14.852Z,97337.77
2019-02-28T18:22:25.331Z,97338.06
2019-02-28T18:25:52.027Z,97345.91
2019-02-28T18:28:54.841Z,97359.16
2019-02-28T18:31:25.729Z,97355.09
2019-02-28T18:34:04.737Z,97364.28
2019-02-28T18:36:40.191Z,97364.28
2019-02-28T18:39:11.582Z,97355.87
2019-02-28T18:41:44.562Z,97355.87
2019-02-28T18:44:15.169Z,97373.47
2019-02-28T18:46:46.561Z,97370.48
2019-02-28T18:49:16.925Z,97371.58
2019-02-28T18:51:47.431Z,97389.69
2019-02-28T18:54:17.787Z,97373.14
2019-02-28T18:56:48.211Z,97365.30
2019-02-28T18:59:18.608Z,97387.45
2019-02-28T19:01:49.051Z,97380.69
2019-02-28T19:04:19.483Z,97373.08
2019-02-28T19:06:49.952Z,97364.70
2019-02-28T19:09:22.128Z,97384.17
2019-02-28T19:11:54.175Z,97367.58
2019-02-28T19:14:26.149Z,97364.31
2019-02-28T19:16:56.637Z,97373.20
2019-02-28T19:19:27.314Z,97385.66
2019-02-28T19:21:57.834Z,97386.70
2019-02-28T19:24:28.461Z,97389.09
2019-02-28T19:26:58.935Z,97390.66
2019-02-28T19:29:29.978Z,97394.48
2019-02-28T19:32:02.893Z,97393.11
2019-02-28T19:34:33.783Z,97402.56
2019-02-28T19:37:04.745Z,97407.98
2019-02-28T19:39:35.319Z,97420.15
2019-02-28T19:42:06.166Z,97412.03
2019-02-28T19:44:36.630Z,97421.77
2019-02-28T19:47:07.958Z,97419.34
2019-02-28T19:49:38.407Z,97416.87
2019-02-28T19:52:09.080Z,97409.05
2019-02-28T19:54:40.119Z,97414.44
2019-02-28T19:57:10.949Z,97411.14
2019-02-28T19:59:42.087Z,97414.11
2019-02-28T20:02:16.546Z,97408.22
2019-02-28T20:04:47.854Z,97402.83
2019-02-28T20:07:20.015Z,97411.98
2019-02-28T20:09:51.074Z,97430.38
2019-02-28T20:12:21.646Z,97425.27
2019-02-28T20:14:52.799Z,97424.15
2019-02-28T20:17:23.800Z,97409.26
2019-02-28T20:19:55.598Z,97433.37
2019-02-28T20:22:26.269Z,97427.47
2019-02-28T20:24:57.034Z,97424.45
2019-02-28T20:27:27.414Z,97435.81
2019-02-28T20:30:00.279Z,97429.57
2019-02-28T20:32:30.354Z,97449.08
2019-02-28T20:35:00.779Z,97449.08
2019-02-28T20:37:31.443Z,97450.66
2019-02-28T20:40:01.879Z,97445.25
2019-02-28T20:42:32.497Z,97427.93
2019-02-28T20:45:03.030Z,97439.80
2019-02-28T20:47:33.675Z,97429.99
2019-02-28T20:50:04.850Z,97450.79
2019-02-28T20:52:35.330Z,97436.97
2019-02-28T20:55:06.043Z,97442.88
2019-02-28T20:57:36.477Z,97459.09
2019-02-28T21:00:10.101Z,97457.19
2019-02-28T21:02:40.793Z,97452.80
2019-02-28T21:05:12.279Z,97465.44
2019-02-28T21:07:42.807Z,97464.36
2019-02-28T21:10:13.789Z,97482.42
2019-02-28T21:12:44.238Z,97486.43
2019-02-28T21:15:19.078Z,97491.59
2019-02-28T21:17:49.873Z,97484.23
2019-02-28T21:20:20.672Z,97487.20
2019-02-28T21:22:51.138Z,97490.92
2019-02-28T21:25:21.832Z,97495.19
2019-02-28T21:27:52.448Z,97488.94
2019-02-28T21:30:24.111Z,97492.42
2019-02-28T21:32:54.801Z,97472.95
2019-02-28T21:35:25.822Z,97485.80
2019-02-28T21:37:58.584Z,97476.88
2019-02-28T21:40:29.190Z,97485.03
2019-02-28T21:42:59.689Z,97495.48
2019-02-28T21:45:30.198Z,97483.02
2019-02-28T21:48:00.904Z,97481.96
2019-02-28T21:50:31.353Z,97508.09
2019-02-28T21:53:01.827Z,97499.44
2019-02-28T21:55:32.410Z,97485.87
2019-02-28T21:58:02.884Z,97481.69
2019-02-28T22:00:33.476Z,97486.94
2019-02-28T22:03:04.238Z,97497.62
2019-02-28T22:05:34.781Z,97500.56
2019-02-28T22:08:05.859Z,97506.89
2019-02-28T22:10:36.233Z,97492.05
2019-02-28T22:13:06.925Z,97501.70
2019-02-28T22:15:37.479Z,97491.93
2019-02-28T22:18:07.940Z,97506.51
2019-02-28T22:20:38.352Z,97492.69
2019-02-28T22:23:11.218Z,97529.03
2019-02-28T22:25:42.962Z,97540.44
2019-02-28T22:28:13.379Z,97526.95
2019-02-28T22:31:02.701Z,97513.95
2019-02-28T22:33:58.663Z,97510.59
2019-02-28T22:36:34.199Z,97525.78
2019-02-28T22:39:06.280Z,97510.63
2019-02-28T22:41:38.945Z,97508.19
2019-02-28T22:44:10.779Z,97518.64
2019-02-28T22:46:41.554Z,97522.88
2019-02-28T22:49:12.283Z,97519.62
2019-02-28T22:51:43.163Z,97533.09
2019-02-28T22:54:13.613Z,97529.88
2019-02-28T22:56:45.081Z,97533.05
2019-02-28T22:59:15.874Z,97531.11
2019-02-28T23:01:47.275Z,97531.55
2019-02-28T23:04:18.053Z,97529.27
2019-02-28T23:06:48.993Z,97548.91
2019-02-28T23:09:21.039Z,97531.39
2019-02-28T23:11:51.491Z,97544.26
2019-02-28T23:14:21.875Z,97535.88
2019-02-28T23:16:52.868Z,97532.28
2019-02-28T23:19:23.645Z,97536.02
2019-02-28T23:21:54.304Z,97548.79
2019-02-28T23:24:24.922Z,97545.06
2019-02-28T23:27:18.229Z,97529.59
2019-02-28T23:30:18.551Z,97540.67
2019-02-28T23:33:16.671Z,97534.84
2019-02-28T23:35:48.713Z,97535.50
2019-02-28T23:38:20.226Z,97541.88
2019-02-28T23:40:51.973Z,97560.11
2019-02-28T23:43:22.609Z,97541.01
2019-02-28T23:45:54.749Z,97540.61
2019-02-28T23:48:25.237Z,97533.27
2019-02-28T23:50:55.747Z,97531.87
2019-02-28T23:53:26.411Z,97536.08
2019-02-28T23:55:58.654Z,97532.30
2019-02-28T23:58:29.156Z,97530.55
